createdAt,value
2019-02-27T00:03:59.841Z,20.62
2019-02-27T00:06:41.193Z,32.40
2019-02-27T00:09:21.019Z,34.20
2019-02-27T00:12:01.284Z,36.75
2019-02-27T00:14:41.796Z,43.20
2019-02-27T00:17:21.121Z,44.70
2019-02-27T00:20:04.077Z,23.73
2019-02-27T00:22:43.543Z,18.62
2019-02-27T00:25:23.732Z,22.70
2019-02-27T00:28:03.840Z,23.20
2019-02-27T00:30:44.180Z,42.43
2019-02-27T00:33:26.221Z,41.90
2019-02-27T00:36:06.069Z,18.60
2019-02-27T00:38:46.480Z,21.00
2019-02-27T00:41:27.790Z,25.45
2019-02-27T00:44:07.648Z,36.20
2019-02-27T00:46:47.335Z,18.07
2019-02-27T00:49:29.812Z,22.90
2019-02-27T00:52:09.654Z,19.15
2019-02-27T00:54:50.018Z,18.57
2019-02-27T00:57:29.857Z,27.58
2019-02-27T01:00:13.585Z,29.27
2019-02-27T01:02:53.723Z,21.90
2019-02-27T01:05:21.395Z,12.98
2019-02-27T01:08:08.487Z,16.20
2019-02-27T01:10:55.204Z,12.30
2019-02-27T01:13:41.892Z,10.45
2019-02-27T01:16:28.340Z,16.02
2019-02-27T01:19:15.366Z,13.00
2019-02-27T01:22:02.705Z,15.63
2019-02-27T01:24:50.098Z,26.80
2019-02-27T01:27:38.723Z,20.27
2019-02-27T01:30:27.504Z,18.17
2019-02-27T01:33:14.206Z,18.27
2019-02-27T01:36:00.756Z,19.90
2019-02-27T01:38:47.752Z,16.45
2019-02-27T01:41:34.551Z,10.23
2019-02-27T01:44:21.871Z,10.78
2019-02-27T01:47:08.960Z,13.05
2019-02-27T01:49:56.385Z,10.38
2019-02-27T01:52:43.168Z,20.80
2019-02-27T01:55:30.355Z,14.20
2019-02-27T01:58:16.813Z,11.48
2019-02-27T02:01:03.755Z,10.70
2019-02-27T02:03:50.595Z,8.98
2019-02-27T02:06:37.605Z,15.70
2019-02-27T02:09:34.135Z,9.15
2019-02-27T02:12:23.185Z,9.75
2019-02-27T02:15:29.532Z,11.57
2019-02-27T02:18:36.144Z,10.60
2019-02-27T02:21:42.482Z,11.33
2019-02-27T02:24:41.541Z,10.55
2019-02-27T02:27:48.178Z,13.55
2019-02-27T02:30:54.809Z,11.10
2019-02-27T02:33:49.659Z,20.80
2019-02-27T02:37:01.399Z,12.47
2019-02-27T02:40:04.533Z,11.08
2019-02-27T02:43:11.075Z,11.48
2019-02-27T02:45:51.389Z,12.05
2019-02-27T02:48:32.100Z,14.13
2019-02-27T02:51:12.626Z,10.35
2019-02-27T02:53:52.687Z,11.65
2019-02-27T02:56:32.786Z,7.42
2019-02-27T02:59:12.833Z,9.33
2019-02-27T03:01:52.798Z,9.78
2019-02-27T03:04:32.761Z,12.55
2019-02-27T03:07:13.233Z,16.00
2019-02-27T03:09:53.442Z,12.85
2019-02-27T03:12:32.977Z,13.98
2019-02-27T03:15:13.230Z,7.22
2019-02-27T03:17:54.798Z,12.18
2019-02-27T03:20:35.294Z,11.90
2019-02-27T03:23:16.287Z,11.90
2019-02-27T03:25:56.260Z,9.25
2019-02-27T03:28:40.618Z,11.73
2019-02-27T03:31:19.357Z,11.85
2019-02-27T03:34:06.417Z,19.32
2019-02-27T03:36:41.827Z,16.30
2019-02-27T03:39:22.293Z,12.88
2019-02-27T03:42:02.279Z,11.97
2019-02-27T03:44:42.258Z,11.03
2019-02-27T03:47:22.107Z,8.53
2019-02-27T03:50:02.403Z,13.15
2019-02-27T03:52:42.584Z,11.30
2019-02-27T03:55:22.963Z,12.43
2019-02-27T03:58:02.634Z,9.53
2019-02-27T04:00:43.709Z,8.00
2019-02-27T04:03:23.931Z,10.80
2019-02-27T04:06:04.008Z,10.15
2019-02-27T04:08:45.015Z,11.03
2019-02-27T04:11:25.234Z,8.90
2019-02-27T04:14:05.655Z,10.93
2019-02-27T04:16:45.595Z,11.20
2019-02-27T04:19:25.470Z,6.67
2019-02-27T04:22:06.067Z,8.48
2019-02-27T04:24:46.042Z,9.78
2019-02-27T04:27:25.638Z,10.85
2019-02-27T04:30:05.917Z,9.48
2019-02-27T04:32:48.734Z,12.15
2019-02-27T04:35:27.897Z,10.82
2019-02-27T04:38:08.129Z,9.53
2019-02-27T04:40:47.822Z,7.75
2019-02-27T04:43:31.994Z,14.40
2019-02-27T04:46:09.078Z,10.43
2019-02-27T04:48:49.189Z,10.20
2019-02-27T04:51:29.726Z,7.60
2019-02-27T04:54:09.433Z,8.88
2019-02-27T04:56:49.798Z,11.78
2019-02-27T04:59:29.974Z,8.78
2019-02-27T05:02:12.131Z,9.68
2019-02-27T05:04:52.001Z,11.03
2019-02-27T05:07:31.925Z,10.50
2019-02-27T05:10:11.866Z,10.32
2019-02-27T05:12:52.455Z,19.30
2019-02-27T05:15:32.205Z,7.65
2019-02-27T05:18:12.437Z,13.05
2019-02-27T05:20:52.549Z,8.00
2019-02-27T05:23:33.446Z,13.48
2019-02-27T05:26:14.430Z,14.87
2019-02-27T05:28:54.705Z,14.50
2019-02-27T05:31:34.861Z,23.83
2019-02-27T05:34:14.965Z,11.38
2019-02-27T05:36:55.205Z,14.33
2019-02-27T05:39:35.360Z,12.95
2019-02-27T05:42:15.457Z,25.90
2019-02-27T05:44:55.894Z,26.85
2019-02-27T05:47:37.513Z,19.60
2019-02-27T05:50:17.711Z,20.52
2019-02-27T05:52:57.799Z,16.65
2019-02-27T05:55:39.197Z,23.27
2019-02-27T05:58:22.880Z,20.82
2019-02-27T06:01:02.082Z,24.20
2019-02-27T06:03:43.993Z,23.42
2019-02-27T06:06:24.328Z,17.92
2019-02-27T06:09:04.433Z,22.70
2019-02-27T06:11:44.613Z,26.95
2019-02-27T06:14:24.860Z,27.70
2019-02-27T06:17:05.030Z,17.98
2019-02-27T06:19:45.082Z,18.35
2019-02-27T06:22:27.242Z,21.17
2019-02-27T06:25:07.428Z,13.35
2019-02-27T06:27:47.636Z,11.63
2019-02-27T06:30:30.334Z,12.82
2019-02-27T06:33:11.872Z,15.48
2019-02-27T06:35:51.294Z,32.75
2019-02-27T06:38:31.293Z,45.23
2019-02-27T06:41:15.407Z,40.12
2019-02-27T06:43:53.501Z,114.92
2019-02-27T06:46:33.347Z,96.82
2019-02-27T06:49:17.290Z,42.43
2019-02-27T06:51:55.747Z,24.35
2019-02-27T06:54:37.751Z,13.72
2019-02-27T06:57:19.741Z,17.62
2019-02-27T07:00:02.164Z,15.18
2019-02-27T07:02:41.693Z,14.28
2019-02-27T07:05:21.613Z,20.05
2019-02-27T07:08:02.232Z,17.15
2019-02-27T07:10:43.961Z,19.67
2019-02-27T07:13:23.639Z,12.50
2019-02-27T07:16:01.978Z,15.43
2019-02-27T07:18:48.565Z,18.52
2019-02-27T07:21:35.984Z,19.90
2019-02-27T07:24:23.277Z,17.48
2019-02-27T07:27:09.730Z,19.90
2019-02-27T07:29:56.998Z,19.35
2019-02-27T07:32:44.217Z,18.40
2019-02-27T07:35:31.370Z,21.02
2019-02-27T07:38:21.391Z,21.80
2019-02-27T07:41:07.025Z,29.72
2019-02-27T07:43:54.229Z,27.10
2019-02-27T07:46:35.523Z,21.20
2019-02-27T07:49:15.814Z,28.35
2019-02-27T07:51:57.787Z,19.42
2019-02-27T07:54:37.765Z,27.73
2019-02-27T07:57:17.968Z,25.08
2019-02-27T07:59:58.270Z,18.85
2019-02-27T08:02:38.374Z,22.45
2019-02-27T08:05:18.662Z,13.08
2019-02-27T08:07:59.265Z,18.73
2019-02-27T08:10:38.901Z,14.83
2019-02-27T08:13:18.826Z,13.05
2019-02-27T08:15:58.826Z,13.18
2019-02-27T08:18:39.134Z,12.95
2019-02-27T08:21:18.906Z,14.05
2019-02-27T08:23:59.070Z,10.98
2019-02-27T08:26:38.941Z,16.70
2019-02-27T08:29:19.049Z,14.18
2019-02-27T08:32:00.819Z,17.90
2019-02-27T08:34:41.029Z,12.95
2019-02-27T08:37:20.982Z,12.88
2019-02-27T08:40:01.138Z,12.88
2019-02-27T08:42:41.401Z,11.15
2019-02-27T08:45:20.915Z,11.97
2019-02-27T08:48:01.462Z,13.22
2019-02-27T08:50:41.741Z,10.13
2019-02-27T08:53:25.843Z,12.88
2019-02-27T08:56:03.958Z,11.45
2019-02-27T08:58:43.977Z,13.70
2019-02-27T09:01:24.010Z,13.90
2019-02-27T09:04:06.042Z,12.13
2019-02-27T09:06:46.449Z,13.18
2019-02-27T09:09:26.479Z,11.78
2019-02-27T09:12:06.506Z,14.70
2019-02-27T09:14:46.472Z,15.63
2019-02-27T09:17:27.286Z,16.23
2019-02-27T09:20:08.373Z,13.18
2019-02-27T09:22:48.527Z,10.20
2019-02-27T09:25:28.661Z,11.80
2019-02-27T09:28:09.411Z,13.18
2019-02-27T09:30:49.886Z,11.63
2019-02-27T09:33:38.364Z,13.03
2019-02-27T09:36:12.154Z,12.43
2019-02-27T09:38:51.882Z,15.90
2019-02-27T09:41:32.134Z,13.80
2019-02-27T09:44:12.741Z,13.25
2019-02-27T09:46:53.132Z,11.20
2019-02-27T09:49:33.006Z,12.70
2019-02-27T09:52:13.293Z,13.48
2019-02-27T09:54:54.805Z,12.80
2019-02-27T09:57:35.359Z,15.00
2019-02-27T10:00:17.095Z,10.82
2019-02-27T10:02:58.245Z,12.03
2019-02-27T10:05:40.740Z,13.28
2019-02-27T10:08:20.540Z,13.72
2019-02-27T10:11:00.061Z,13.25
2019-02-27T10:13:40.509Z,16.20
2019-02-27T10:16:20.597Z,14.43
2019-02-27T10:19:00.578Z,17.42
2019-02-27T10:21:41.310Z,16.00
2019-02-27T10:24:21.331Z,13.78
2019-02-27T10:27:01.634Z,15.93
2019-02-27T10:29:41.494Z,19.12
2019-02-27T10:32:21.385Z,17.37
2019-02-27T10:35:01.077Z,16.62
2019-02-27T10:37:41.253Z,19.02
2019-02-27T10:40:21.450Z,21.50
2019-02-27T10:43:01.289Z,15.73
2019-02-27T10:45:42.269Z,18.00
2019-02-27T10:48:22.837Z,13.00
2019-02-27T10:51:02.933Z,14.03
2019-02-27T10:53:43.166Z,13.87
2019-02-27T10:56:24.229Z,14.60
2019-02-27T10:59:04.908Z,15.83
2019-02-27T11:01:45.164Z,13.67
2019-02-27T11:04:25.338Z,12.63
2019-02-27T11:07:05.282Z,19.37
2019-02-27T11:09:45.369Z,18.67
2019-02-27T11:12:26.893Z,14.53
2019-02-27T11:15:08.223Z,18.10
2019-02-27T11:17:49.034Z,14.03
2019-02-27T11:20:29.143Z,15.03
2019-02-27T11:23:09.382Z,14.00
2019-02-27T11:25:49.424Z,12.97
2019-02-27T11:28:28.797Z,14.23
2019-02-27T11:31:11.040Z,18.10
2019-02-27T11:33:51.299Z,14.27
2019-02-27T11:36:31.793Z,14.27
2019-02-27T11:39:11.822Z,20.60
2019-02-27T11:41:51.496Z,14.47
2019-02-27T11:44:31.570Z,16.40
2019-02-27T11:47:12.071Z,19.47
2019-02-27T11:49:52.057Z,14.87
2019-02-27T11:52:31.966Z,20.20
2019-02-27T11:55:14.829Z,16.83
2019-02-27T11:57:54.121Z,13.00
2019-02-27T12:00:33.954Z,19.00
2019-02-27T12:03:14.437Z,15.93
2019-02-27T12:05:54.283Z,23.13
2019-02-27T12:08:33.888Z,16.60
2019-02-27T12:11:14.311Z,14.60
2019-02-27T12:13:54.865Z,15.53
2019-02-27T12:16:35.049Z,19.47
2019-02-27T12:19:15.161Z,18.87
2019-02-27T12:21:59.512Z,13.77
2019-02-27T12:24:37.097Z,15.83
2019-02-27T12:27:24.315Z,17.00
2019-02-27T12:30:00.140Z,15.77
2019-02-27T12:32:41.390Z,15.77
2019-02-27T12:35:21.069Z,12.27
2019-02-27T12:38:01.136Z,15.83
2019-02-27T12:40:41.377Z,14.20
2019-02-27T12:43:21.639Z,16.83
2019-02-27T12:46:01.719Z,14.27
2019-02-27T12:48:46.129Z,14.60
2019-02-27T12:51:23.294Z,17.03
2019-02-27T12:54:03.193Z,10.87
2019-02-27T12:56:44.530Z,15.33
2019-02-27T12:59:24.627Z,12.80
2019-02-27T13:02:08.345Z,11.47
2019-02-27T13:04:46.706Z,12.60
2019-02-27T13:07:27.754Z,18.03
2019-02-27T13:10:07.855Z,14.33
2019-02-27T13:12:49.276Z,11.50
2019-02-27T13:15:30.086Z,13.17
2019-02-27T13:18:10.309Z,17.60
2019-02-27T13:20:50.496Z,12.87
2019-02-27T13:23:31.018Z,12.90
2019-02-27T13:26:10.843Z,12.67
2019-02-27T13:28:50.954Z,11.40
2019-02-27T13:31:30.980Z,10.97
2019-02-27T13:34:11.325Z,10.90
2019-02-27T13:36:53.357Z,12.43
2019-02-27T13:39:34.022Z,14.17
2019-02-27T13:42:18.415Z,12.23
2019-02-27T13:44:56.235Z,11.50
2019-02-27T13:47:36.125Z,12.17
2019-02-27T13:50:16.844Z,10.83
2019-02-27T13:52:56.898Z,10.40
2019-02-27T13:55:37.068Z,10.70
2019-02-27T13:58:16.855Z,12.33
2019-02-27T14:00:56.909Z,22.50
2019-02-27T14:03:37.377Z,8.30
2019-02-27T14:06:17.106Z,12.50
2019-02-27T14:08:57.285Z,8.90
2019-02-27T14:11:37.713Z,11.67
2019-02-27T14:14:18.642Z,7.40
2019-02-27T14:16:58.843Z,14.20
2019-02-27T14:19:39.047Z,10.33
2019-02-27T14:22:18.909Z,9.70
2019-02-27T14:24:59.198Z,8.23
2019-02-27T14:27:39.001Z,7.20
2019-02-27T14:30:19.057Z,7.63
2019-02-27T14:32:59.194Z,10.07
2019-02-27T14:35:39.303Z,9.27
2019-02-27T14:38:21.929Z,8.13
2019-02-27T14:41:02.877Z,7.83
2019-02-27T14:43:42.829Z,6.90
2019-02-27T14:46:23.043Z,7.80
2019-02-27T14:49:02.841Z,6.70
2019-02-27T14:51:43.134Z,8.50
2019-02-27T14:54:23.005Z,8.10
2019-02-27T14:57:02.993Z,8.20
2019-02-27T14:59:42.934Z,6.50
2019-02-27T15:02:23.015Z,6.43
2019-02-27T15:05:06.093Z,6.57
2019-02-27T15:07:45.501Z,9.90
2019-02-27T15:10:25.713Z,9.73
2019-02-27T15:13:05.233Z,7.63
2019-02-27T15:15:45.489Z,7.60
2019-02-27T15:18:25.324Z,14.10
2019-02-27T15:21:05.502Z,12.20
2019-02-27T15:23:46.205Z,19.97
2019-02-27T15:26:26.589Z,10.23
2019-02-27T15:29:06.735Z,11.53
2019-02-27T15:31:47.210Z,10.70
2019-02-27T15:34:27.063Z,13.27
2019-02-27T15:37:07.442Z,134.37
2019-02-27T15:39:47.149Z,19.73
2019-02-27T15:42:27.378Z,105.27
2019-02-27T15:45:09.956Z,31.30
2019-02-27T15:47:49.734Z,152.50
2019-02-27T15:50:29.776Z,24.97
2019-02-27T15:53:14.593Z,18.73
2019-02-27T15:55:51.514Z,11.57
2019-02-27T15:58:31.597Z,13.00
2019-02-27T16:01:11.569Z,11.30
2019-02-27T16:03:51.682Z,24.13
2019-02-27T16:06:32.106Z,34.17
2019-02-27T16:09:11.701Z,15.20
2019-02-27T16:11:52.593Z,11.03
2019-02-27T16:14:32.566Z,13.37
2019-02-27T16:17:12.881Z,14.97
2019-02-27T16:19:54.117Z,26.00
2019-02-27T16:22:34.860Z,11.37
2019-02-27T16:25:18.310Z,10.97
2019-02-27T16:27:56.157Z,10.50
2019-02-27T16:30:37.190Z,19.13
2019-02-27T16:33:23.038Z,26.20
2019-02-27T16:35:59.733Z,21.17
2019-02-27T16:38:41.302Z,22.20
2019-02-27T16:41:20.945Z,13.00
2019-02-27T16:44:01.365Z,48.23
2019-02-27T16:46:44.630Z,61.40
2019-02-27T16:49:23.536Z,40.03
2019-02-27T16:52:07.871Z,32.23
2019-02-27T16:54:45.006Z,36.10
2019-02-27T16:57:25.146Z,29.93
2019-02-27T17:00:05.204Z,27.33
2019-02-27T17:02:45.990Z,20.70
2019-02-27T17:05:25.726Z,25.13
2019-02-27T17:08:06.153Z,30.30
2019-02-27T17:10:46.154Z,23.40
2019-02-27T17:13:26.265Z,25.63
2019-02-27T17:16:07.123Z,30.30
2019-02-27T17:18:48.405Z,30.60
2019-02-27T17:21:28.702Z,31.00
2019-02-27T17:24:08.688Z,36.90
2019-02-27T17:26:48.953Z,31.47
2019-02-27T17:29:28.717Z,55.03
2019-02-27T17:32:09.029Z,37.77
2019-02-27T17:34:48.898Z,31.33
2019-02-27T17:37:28.870Z,30.73
2019-02-27T17:40:08.996Z,32.77
2019-02-27T17:42:53.178Z,50.03
2019-02-27T17:45:31.393Z,23.30
2019-02-27T17:48:12.337Z,30.37
2019-02-27T17:50:53.913Z,50.10
2019-02-27T17:53:33.902Z,54.30
2019-02-27T17:56:15.426Z,65.43
2019-02-27T17:58:56.448Z,75.53
2019-02-27T18:01:36.798Z,93.10
2019-02-27T18:04:17.038Z,87.03
2019-02-27T18:06:58.776Z,111.03
2019-02-27T18:09:40.436Z,87.67
2019-02-27T18:12:21.562Z,60.08
2019-02-27T18:15:01.814Z,142.73
2019-02-27T18:17:42.256Z,112.70
2019-02-27T18:20:25.555Z,77.33
2019-02-27T18:23:04.085Z,82.80
2019-02-27T18:25:44.319Z,95.80
2019-02-27T18:28:24.017Z,100.80
2019-02-27T18:31:04.122Z,83.60
2019-02-27T18:33:44.324Z,62.48
2019-02-27T18:36:24.532Z,79.27
2019-02-27T18:39:04.261Z,58.63
2019-02-27T18:41:45.672Z,50.93
2019-02-27T18:44:26.924Z,44.45
2019-02-27T18:47:07.053Z,47.67
2019-02-27T18:49:48.962Z,39.53
2019-02-27T18:52:29.322Z,57.33
2019-02-27T18:55:11.016Z,72.43
2019-02-27T18:57:53.518Z,96.72
2019-02-27T19:00:36.232Z,137.00
2019-02-27T19:03:15.760Z,119.45
2019-02-27T19:05:55.870Z,129.70
2019-02-27T19:08:35.589Z,245.27
2019-02-27T19:11:16.031Z,296.07
2019-02-27T19:13:56.941Z,243.35
2019-02-27T19:16:37.023Z,211.75
2019-02-27T19:19:17.217Z,172.25
2019-02-27T19:21:45.296Z,148.17
2019-02-27T19:27:25.477Z,167.75
2019-02-27T19:30:34.798Z,172.90
2019-02-27T19:33:23.996Z,143.70
2019-02-27T19:36:18.883Z,120.08
2019-02-27T19:39:00.561Z,148.90
2019-02-27T19:41:47.724Z,131.63
2019-02-27T19:44:29.211Z,97.30
2019-02-27T19:47:09.362Z,78.00
2019-02-27T19:49:49.274Z,63.85
2019-02-27T19:52:29.732Z,81.10
2019-02-27T19:55:10.678Z,116.75
2019-02-27T19:57:50.258Z,85.97
2019-02-27T20:00:33.760Z,58.17
2019-02-27T20:03:13.132Z,69.03
2019-02-27T20:05:53.258Z,76.70
2019-02-27T20:08:33.687Z,66.70
2019-02-27T20:11:02.353Z,46.48
2019-02-27T20:13:49.559Z,38.73
2019-02-27T20:16:37.009Z,41.75
2019-02-27T20:19:28.354Z,36.40
2019-02-27T20:22:15.408Z,46.25
2019-02-27T20:25:02.450Z,59.00
2019-02-27T20:27:49.926Z,75.22
2019-02-27T20:33:45.761Z,55.67
2019-02-27T20:36:33.240Z,51.75
2019-02-27T20:39:23.082Z,51.50
2019-02-27T20:41:50.632Z,42.10
2019-02-27T20:44:30.753Z,51.37
2019-02-27T20:47:10.635Z,52.53
2019-02-27T20:49:50.650Z,44.10
2019-02-27T20:52:30.701Z,40.63
2019-02-27T20:55:11.246Z,39.10
2019-02-27T20:57:51.274Z,34.30
2019-02-27T21:00:35.762Z,31.73
2019-02-27T21:03:13.598Z,35.20
2019-02-27T21:05:53.665Z,29.77
2019-02-27T21:08:36.147Z,35.68
2019-02-27T21:11:15.816Z,41.02
2019-02-27T21:13:56.006Z,40.05
2019-02-27T21:16:40.166Z,37.33
2019-02-27T21:19:20.222Z,50.92
2019-02-27T21:22:00.645Z,53.85
2019-02-27T21:24:41.358Z,48.80
2019-02-27T21:27:22.428Z,47.93
2019-02-27T21:30:02.581Z,43.90
2019-02-27T21:32:43.021Z,33.30
2019-02-27T21:35:28.874Z,45.58
2019-02-27T21:38:05.617Z,45.80
2019-02-27T21:40:45.392Z,37.95
2019-02-27T21:43:26.360Z,74.90
2019-02-27T21:46:08.348Z,41.30
2019-02-27T21:48:49.321Z,33.80
2019-02-27T21:51:29.333Z,32.13
2019-02-27T21:54:09.111Z,31.77
2019-02-27T21:56:51.861Z,32.83
2019-02-27T21:59:31.449Z,29.67
2019-02-27T22:02:11.809Z,36.63
2019-02-27T22:04:51.881Z,24.20
2019-02-27T22:07:33.352Z,39.38
2019-02-27T22:10:18.993Z,31.10
2019-02-27T22:12:56.073Z,40.08
2019-02-27T22:15:36.346Z,38.08
2019-02-27T22:18:16.189Z,36.58
2019-02-27T22:20:59.462Z,41.70
2019-02-27T22:23:38.351Z,34.27
2019-02-27T22:26:18.774Z,39.08
2019-02-27T22:28:58.768Z,35.40
2019-02-27T22:31:40.519Z,30.90
2019-02-27T22:34:20.757Z,25.45
2019-02-27T22:37:00.445Z,36.50
2019-02-27T22:39:40.779Z,42.40
2019-02-27T22:42:20.950Z,48.02
2019-02-27T22:45:04.117Z,35.00
2019-02-27T22:47:42.738Z,86.60
2019-02-27T22:50:22.569Z,105.05
2019-02-27T22:53:03.045Z,81.65
2019-02-27T22:55:43.179Z,88.30
2019-02-27T22:58:27.531Z,51.80
2019-02-27T23:01:14.859Z,44.55
2019-02-27T23:03:57.898Z,48.73
2019-02-27T23:06:37.262Z,47.23
2019-02-27T23:09:17.385Z,60.95
2019-02-27T23:11:57.657Z,43.30
2019-02-27T23:14:37.779Z,51.75
2019-02-27T23:17:17.489Z,58.58
2019-02-27T23:19:57.413Z,46.15
2019-02-27T23:22:37.544Z,77.50
2019-02-27T23:25:18.020Z,63.33
2019-02-27T23:28:01.039Z,53.98
2019-02-27T23:30:39.781Z,36.42
2019-02-27T23:33:20.179Z,52.17
2019-02-27T23:36:00.276Z,43.50
2019-02-27T23:38:40.087Z,45.00
2019-02-27T23:41:23.155Z,34.50
2019-02-27T23:44:05.406Z,26.35
2019-02-27T23:46:49.559Z,27.75
2019-02-27T23:49:26.766Z,32.95
2019-02-27T23:52:07.353Z,36.85
2019-02-27T23:54:47.125Z,56.45
2019-02-27T23:57:26.795Z,36.50
